createdAt,value
2018-04-01T00:01:50.439Z,69.90
2018-04-01T00:04:17.618Z,68.70
2018-04-01T00:06:44.633Z,69.30
2018-04-01T00:09:11.720Z,69.10
2018-04-01T00:11:38.824Z,68.80
2018-04-01T00:14:05.836Z,68.50
2018-04-01T00:16:32.862Z,69.70
2018-04-01T00:18:59.867Z,69.80
2018-04-01T00:21:26.862Z,69.50
2018-04-01T00:23:53.891Z,70.20
2018-04-01T00:26:20.896Z,69.90
2018-04-01T00:28:47.956Z,69.30
2018-04-01T00:31:14.996Z,69.30
2018-04-01T00:33:42.083Z,68.50
2018-04-01T00:36:09.130Z,69.00
2018-04-01T00:38:36.211Z,68.70
2018-04-01T00:41:04.084Z,69.50
2018-04-01T00:43:31.958Z,69.30
2018-04-01T00:45:59.783Z,69.30
2018-04-01T00:48:26.824Z,69.30
2018-04-01T00:50:53.838Z,69.00
2018-04-01T00:53:20.894Z,68.90
2018-04-01T00:55:47.914Z,68.70
2018-04-01T00:58:15.705Z,69.00
2018-04-01T01:00:42.727Z,69.00
2018-04-01T01:03:10.491Z,68.60
2018-04-01T01:05:38.257Z,68.90
2018-04-01T01:08:06.034Z,68.10
2018-04-01T01:10:33.032Z,68.20
2018-04-01T01:13:00.092Z,68.00
2018-04-01T01:15:27.115Z,68.80
2018-04-01T01:17:54.132Z,69.20
2018-04-01T01:20:21.117Z,68.00
2018-04-01T01:22:48.256Z,67.60
2018-04-01T01:25:15.281Z,67.10
2018-04-01T01:27:42.307Z,67.30
2018-04-01T01:30:09.333Z,67.30
2018-04-01T01:32:37.151Z,66.80
2018-04-01T01:35:04.175Z,66.80
2018-04-01T01:37:31.213Z,67.00
2018-04-01T01:39:58.280Z,66.70
2018-04-01T01:42:25.281Z,67.10
2018-04-01T01:44:53.299Z,67.20
2018-04-01T01:47:20.296Z,67.20
2018-04-01T01:49:48.108Z,67.30
2018-04-01T01:52:15.236Z,66.90
2018-04-01T01:54:42.226Z,66.80
2018-04-01T01:57:09.287Z,66.40
2018-04-01T01:59:36.300Z,66.10
2018-04-01T02:02:03.337Z,66.30
2018-04-01T02:04:30.422Z,67.00
2018-04-01T02:06:57.427Z,67.10
2018-04-01T02:09:24.478Z,67.10
2018-04-01T02:11:51.487Z,66.80
2018-04-01T02:14:19.299Z,67.50
2018-04-01T02:16:46.378Z,66.60
2018-04-01T02:19:13.488Z,66.30
2018-04-01T02:21:40.507Z,66.10
2018-04-01T02:24:08.295Z,65.40
2018-04-01T02:26:35.398Z,65.40
2018-04-01T02:29:02.401Z,65.80
2018-04-01T02:31:29.518Z,65.30
2018-04-01T02:33:56.504Z,65.60
2018-04-01T02:36:23.498Z,65.80
2018-04-01T02:38:51.300Z,66.30
2018-04-01T02:41:18.328Z,65.40
2018-04-01T02:43:46.115Z,65.40
2018-04-01T02:46:13.189Z,65.30
2018-04-01T02:48:40.179Z,65.50
2018-04-01T02:51:07.986Z,66.50
2018-04-01T02:53:34.996Z,66.50
2018-04-01T02:56:02.836Z,66.20
2018-04-01T02:58:29.994Z,66.20
2018-04-01T03:00:57.017Z,65.80
2018-04-01T03:03:24.064Z,66.30
2018-04-01T03:05:51.184Z,66.80
2018-04-01T03:08:18.199Z,66.80
2018-04-01T03:10:45.987Z,69.10
2018-04-01T03:13:13.047Z,69.00
2018-04-01T03:15:40.083Z,68.20
2018-04-01T03:18:07.156Z,68.60
2018-04-01T03:20:34.200Z,68.50
2018-04-01T03:23:01.245Z,68.40
2018-04-01T03:25:28.262Z,67.50
2018-04-01T03:27:55.288Z,66.90
2018-04-01T03:30:23.102Z,66.60
2018-04-01T03:32:50.125Z,66.40
2018-04-01T03:35:17.197Z,65.70
2018-04-01T03:37:44.224Z,65.90
2018-04-01T03:40:11.242Z,64.70
2018-04-01T03:42:39.052Z,64.50
2018-04-01T03:45:06.102Z,64.50
2018-04-01T03:47:33.147Z,64.30
2018-04-01T03:50:00.152Z,63.80
2018-04-01T03:52:27.994Z,64.10
2018-04-01T03:54:54.989Z,64.00
2018-04-01T03:57:22.787Z,64.00
2018-04-01T03:59:49.819Z,64.20
2018-04-01T04:02:16.843Z,63.70
2018-04-01T04:04:43.905Z,63.10
2018-04-01T04:07:10.913Z,63.10
2018-04-01T04:09:38.708Z,64.00
2018-04-01T04:12:05.778Z,63.80
2018-04-01T04:14:32.780Z,63.60
2018-04-01T04:17:00.724Z,63.70
2018-04-01T04:19:27.799Z,63.50
2018-04-01T04:21:55.662Z,63.60
2018-04-01T04:24:23.490Z,63.70
2018-04-01T04:26:50.837Z,63.70
2018-04-01T04:29:18.047Z,64.40
2018-04-01T04:31:45.104Z,64.80
2018-04-01T04:34:12.109Z,65.40
2018-04-01T04:36:39.136Z,69.00
2018-04-01T04:39:06.242Z,69.00
2018-04-01T04:41:34.210Z,73.10
2018-04-01T04:44:01.256Z,73.00
2018-04-01T04:46:28.349Z,72.70
2018-04-01T04:48:55.544Z,71.90
2018-04-01T04:51:23.700Z,73.50
2018-04-01T04:53:50.850Z,73.40
2018-04-01T04:56:18.927Z,73.70
2018-04-01T04:58:46.909Z,73.40
2018-04-01T05:01:14.727Z,74.20
2018-04-01T05:03:41.845Z,74.30
2018-04-01T05:06:09.125Z,72.70
2018-04-01T05:08:36.449Z,73.20
2018-04-01T05:11:03.798Z,73.00
2018-04-01T05:13:30.919Z,73.60
2018-04-01T05:15:58.764Z,74.00
2018-04-01T05:18:26.014Z,73.10
2018-04-01T05:20:53.824Z,73.50
2018-04-01T05:23:21.018Z,74.00
2018-04-01T05:25:48.235Z,73.70
2018-04-01T05:28:15.322Z,74.70
2018-04-01T05:30:42.483Z,74.20
2018-04-01T05:33:09.549Z,74.00
2018-04-01T05:35:38.067Z,74.10
2018-04-01T05:38:05.238Z,74.70
2018-04-01T05:40:32.441Z,74.30
2018-04-01T05:43:00.599Z,73.10
2018-04-01T05:45:27.954Z,73.10
2018-04-01T05:47:55.324Z,73.60
2018-04-01T05:50:23.266Z,73.30
2018-04-01T05:52:50.405Z,73.20
2018-04-01T05:55:17.532Z,73.30
2018-04-01T05:57:44.683Z,73.00
2018-04-01T06:00:11.755Z,73.30
2018-04-01T06:02:38.942Z,74.40
2018-04-01T06:05:06.834Z,75.40
2018-04-01T06:07:34.050Z,75.30
2018-04-01T06:10:01.879Z,77.40
2018-04-01T06:12:28.962Z,77.30
2018-04-01T06:14:56.100Z,77.30
2018-04-01T06:17:23.310Z,77.40
2018-04-01T06:19:50.538Z,78.70
2018-04-01T06:22:17.629Z,78.90
2018-04-01T06:24:44.723Z,80.60
2018-04-01T06:27:12.660Z,78.40
2018-04-01T06:29:39.702Z,78.20
2018-04-01T06:32:06.915Z,78.90
2018-04-01T06:34:35.034Z,79.20
2018-04-01T06:37:02.152Z,78.80
2018-04-01T06:39:29.344Z,79.20
2018-04-01T06:41:56.536Z,79.40
2018-04-01T06:44:23.687Z,79.10
2018-04-01T06:46:50.816Z,77.90
2018-04-01T06:49:18.703Z,77.50
2018-04-01T06:51:45.788Z,77.50
2018-04-01T06:54:12.963Z,77.70
2018-04-01T06:57:01.049Z,76.70
2018-04-01T06:59:28.909Z,76.20
2018-04-01T07:01:55.983Z,76.10
2018-04-01T07:04:23.058Z,75.30
2018-04-01T07:06:50.075Z,75.00
2018-04-01T07:09:17.126Z,75.00
2018-04-01T07:11:44.164Z,75.00
2018-04-01T07:14:11.195Z,74.00
2018-04-01T07:16:38.215Z,75.10
2018-04-01T07:19:06.039Z,74.70
2018-04-01T07:21:33.075Z,74.60
2018-04-01T07:24:00.083Z,75.10
2018-04-01T07:26:27.857Z,76.40
2018-04-01T07:28:54.870Z,76.30
2018-04-01T07:31:21.865Z,76.00
2018-04-01T07:33:48.901Z,77.30
2018-04-01T07:36:15.943Z,76.00
2018-04-01T07:38:42.909Z,76.00
2018-04-01T07:41:09.918Z,75.40
2018-04-01T07:43:37.697Z,75.40
2018-04-01T07:46:05.666Z,75.40
2018-04-01T07:48:32.664Z,75.10
2018-04-01T07:50:59.665Z,74.20
2018-04-01T07:53:26.679Z,73.40
2018-04-01T07:55:53.771Z,72.90
2018-04-01T07:58:20.794Z,72.80
2018-04-01T08:00:48.560Z,72.60
2018-04-01T08:03:16.319Z,72.60
2018-04-01T08:05:44.095Z,73.10
2018-04-01T08:08:11.109Z,73.10
2018-04-01T08:10:38.133Z,76.00
2018-04-01T08:13:05.143Z,75.10
2018-04-01T08:15:32.140Z,76.10
2018-04-01T08:18:00.244Z,75.00
2018-04-01T08:20:28.009Z,75.10
2018-04-01T08:22:55.786Z,73.60
2018-04-01T08:25:22.787Z,73.60
2018-04-01T08:27:49.823Z,72.40
2018-04-01T08:30:16.933Z,72.80
2018-04-01T08:32:44.134Z,72.80
2018-04-01T08:35:11.264Z,73.70
2018-04-01T08:37:38.321Z,73.20
2018-04-01T08:40:05.501Z,71.80
2018-04-01T08:42:33.405Z,72.40
2018-04-01T08:45:08.933Z,72.30
2018-04-01T08:47:36.096Z,72.90
2018-04-01T08:50:04.664Z,73.00
2018-04-01T08:52:31.709Z,73.60
2018-04-01T08:54:59.507Z,72.80
2018-04-01T08:57:26.579Z,72.80
2018-04-01T08:59:53.693Z,73.90
2018-04-01T09:02:20.787Z,73.00
2018-04-01T09:04:47.895Z,72.90
2018-04-01T09:07:15.112Z,72.80
2018-04-01T09:09:42.967Z,71.80
2018-04-01T09:12:10.056Z,71.70
2018-04-01T09:14:37.241Z,70.40
2018-04-01T09:17:04.438Z,71.00
2018-04-01T09:19:32.373Z,69.50
2018-04-01T09:22:00.494Z,69.60
2018-04-01T09:24:27.592Z,69.50
2018-04-01T09:26:55.487Z,67.60
2018-04-01T09:29:23.299Z,67.10
2018-04-01T09:31:50.483Z,67.00
2018-04-01T09:34:17.638Z,66.00
2018-04-01T09:36:44.727Z,65.00
2018-04-01T09:39:11.834Z,65.90
2018-04-01T09:41:39.026Z,64.50
2018-04-01T09:44:06.325Z,63.80
2018-04-01T09:46:33.526Z,62.50
2018-04-01T09:49:00.692Z,63.10
2018-04-01T09:51:27.932Z,61.60
2018-04-01T09:53:55.286Z,62.70
2018-04-01T09:56:22.336Z,61.90
2018-04-01T09:58:49.347Z,62.00
2018-04-01T10:01:17.925Z,61.50
2018-04-01T10:03:45.745Z,61.50
2018-04-01T10:06:13.355Z,60.60
2018-04-01T10:08:41.807Z,60.50
2018-04-01T10:11:09.397Z,60.40
2018-04-01T10:13:37.766Z,60.80
2018-04-01T10:16:05.507Z,60.90
2018-04-01T10:18:33.260Z,59.40
2018-04-01T10:21:00.813Z,59.60
2018-04-01T10:23:28.422Z,58.30
2018-04-01T10:25:56.806Z,58.00
2018-04-01T10:28:25.120Z,56.90
2018-04-01T10:30:52.652Z,56.90
2018-04-01T10:33:20.983Z,57.10
2018-04-01T10:35:48.540Z,57.00
2018-04-01T10:38:16.043Z,55.90
2018-04-01T10:40:43.654Z,55.60
2018-04-01T10:43:11.227Z,55.20
2018-04-01T10:45:38.767Z,55.40
2018-04-01T10:48:06.387Z,53.70
2018-04-01T10:50:34.702Z,50.50
2018-04-01T10:53:02.212Z,50.50
2018-04-01T10:55:30.031Z,51.70
2018-04-01T10:57:57.087Z,51.50
2018-04-01T11:00:24.136Z,50.10
2018-04-01T11:02:51.169Z,48.20
2018-04-01T11:05:18.408Z,49.00
2018-04-01T11:07:45.474Z,48.00
2018-04-01T11:10:12.541Z,49.10
2018-04-01T11:12:39.748Z,48.80
2018-04-01T11:15:06.875Z,48.80
2018-04-01T11:17:34.775Z,50.20
2018-04-01T11:20:01.776Z,50.10
2018-04-01T11:22:29.595Z,46.40
2018-04-01T11:24:56.726Z,46.30
2018-04-01T11:27:23.842Z,46.80
2018-04-01T11:29:51.718Z,48.40
2018-04-01T11:32:19.563Z,47.50
2018-04-01T11:34:46.714Z,47.50
2018-04-01T11:37:13.782Z,47.40
2018-04-01T11:39:41.584Z,52.30
2018-04-01T11:42:08.600Z,52.30
2018-04-01T11:44:36.435Z,51.10
2018-04-01T11:47:03.513Z,51.00
2018-04-01T11:49:31.406Z,50.10
2018-04-01T11:51:58.541Z,50.10
2018-04-01T11:54:25.595Z,51.40
2018-04-01T11:56:52.723Z,49.70
2018-04-01T11:59:19.894Z,49.10
2018-04-01T12:01:46.942Z,49.90
2018-04-01T12:04:13.982Z,51.10
2018-04-01T12:06:41.168Z,51.20
2018-04-01T12:09:08.234Z,50.60
2018-04-01T12:11:36.070Z,50.50
2018-04-01T12:14:03.092Z,50.50
2018-04-01T12:16:30.173Z,50.40
2018-04-01T12:18:57.264Z,50.80
2018-04-01T12:21:25.066Z,48.90
2018-04-01T12:23:52.175Z,48.80
2018-04-01T12:26:20.043Z,49.20
2018-04-01T12:28:47.877Z,49.70
2018-04-01T12:31:14.867Z,49.60
2018-04-01T12:33:42.732Z,50.50
2018-04-01T12:36:10.590Z,50.40
2018-04-01T12:38:38.430Z,50.40
2018-04-01T12:41:05.512Z,50.40
2018-04-01T12:43:33.267Z,53.70
2018-04-01T12:46:01.044Z,51.60
2018-04-01T12:48:28.842Z,50.90
2018-04-01T12:50:55.889Z,50.90
2018-04-01T12:53:23.028Z,51.40
2018-04-01T12:55:50.351Z,52.40
2018-04-01T12:58:18.146Z,51.50
2018-04-01T13:00:45.216Z,51.50
2018-04-01T13:03:12.282Z,52.00
2018-04-01T13:05:39.367Z,48.10
2018-04-01T13:08:07.193Z,51.60
2018-04-01T13:10:34.251Z,51.60
2018-04-01T13:13:01.283Z,52.70
2018-04-01T13:15:28.339Z,51.60
2018-04-01T13:17:55.406Z,50.20
2018-04-01T13:20:22.596Z,49.60
2018-04-01T13:22:49.676Z,48.00
2018-04-01T13:25:16.687Z,46.30
2018-04-01T13:27:43.684Z,47.70
2018-04-01T13:30:10.704Z,49.30
2018-04-01T13:32:37.724Z,52.20
2018-04-01T13:35:04.779Z,51.80
2018-04-01T13:37:31.869Z,52.40
2018-04-01T13:39:58.951Z,53.10
2018-04-01T13:42:26.767Z,59.00
2018-04-01T13:44:53.850Z,58.90
2018-04-01T13:47:20.972Z,57.30
2018-04-01T13:49:48.088Z,57.70
2018-04-01T13:52:15.187Z,55.10
2018-04-01T13:54:42.425Z,55.50
2018-04-01T13:57:09.478Z,56.60
2018-04-01T13:59:36.568Z,56.80
2018-04-01T14:02:04.369Z,54.20
2018-04-01T14:04:31.499Z,54.20
2018-04-01T14:06:58.580Z,51.70
2018-04-01T14:09:25.620Z,48.90
2018-04-01T14:11:52.640Z,48.10
2018-04-01T14:14:19.698Z,48.20
2018-04-01T14:16:46.765Z,46.40
2018-04-01T14:19:13.819Z,48.70
2018-04-01T14:21:40.934Z,49.20
2018-04-01T14:24:08.048Z,48.40
2018-04-01T14:26:35.867Z,51.00
2018-04-01T14:29:02.998Z,50.70
2018-04-01T14:31:30.097Z,51.20
2018-04-01T14:33:57.129Z,52.30
2018-04-01T14:36:24.236Z,51.60
2018-04-01T14:38:51.295Z,52.80
2018-04-01T14:41:18.299Z,52.80
2018-04-01T14:43:45.420Z,52.50
2018-04-01T14:46:12.614Z,52.50
2018-04-01T14:48:40.438Z,53.40
2018-04-01T14:51:07.516Z,53.40
2018-04-01T14:53:35.418Z,53.50
2018-04-01T14:56:02.595Z,52.80
2018-04-01T14:58:29.642Z,53.50
2018-04-01T15:00:56.737Z,53.10
2018-04-01T15:03:24.674Z,54.10
2018-04-01T15:05:51.822Z,54.10
2018-04-01T15:08:18.985Z,52.80
2018-04-01T15:10:46.120Z,51.50
2018-04-01T15:13:13.166Z,48.80
2018-04-01T15:15:41.061Z,48.10
2018-04-01T15:18:08.244Z,49.60
2018-04-01T15:20:35.327Z,51.50
2018-04-01T15:23:02.532Z,53.10
2018-04-01T15:25:29.667Z,53.00
2018-04-01T15:27:57.561Z,48.70
2018-04-01T15:30:24.826Z,48.60
2018-04-01T15:32:52.126Z,48.30
2018-04-01T15:35:19.385Z,48.70
2018-04-01T15:37:47.672Z,53.50
2018-04-01T15:40:15.586Z,55.80
2018-04-01T15:42:42.590Z,55.80
2018-04-01T15:45:10.532Z,62.30
2018-04-01T15:47:37.705Z,62.10
2018-04-01T15:50:05.641Z,58.80
2018-04-01T15:52:32.706Z,58.10
2018-04-01T15:54:59.839Z,54.00
2018-04-01T15:57:27.255Z,52.60
2018-04-01T15:59:54.469Z,54.90
2018-04-01T16:02:22.612Z,51.40
2018-04-01T16:04:50.229Z,51.30
2018-04-01T16:07:17.386Z,49.80
2018-04-01T16:09:44.760Z,51.20
2018-04-01T16:12:11.975Z,50.20
2018-04-01T16:14:39.799Z,50.20
2018-04-01T16:17:07.010Z,50.10
2018-04-01T16:19:34.493Z,49.60
2018-04-01T16:22:04.278Z,52.00
2018-04-01T16:24:31.467Z,53.00
2018-04-01T16:26:58.578Z,55.30
2018-04-01T16:29:25.755Z,52.20
2018-04-01T16:31:52.852Z,50.70
2018-04-01T16:34:21.016Z,54.70
2018-04-01T16:36:48.920Z,56.70
2018-04-01T16:39:16.146Z,56.10
2018-04-01T16:41:44.344Z,57.40
2018-04-01T16:44:12.518Z,57.20
2018-04-01T16:46:39.872Z,57.10
2018-04-01T16:49:06.993Z,58.00
2018-04-01T16:51:34.990Z,58.50
2018-04-01T16:54:02.449Z,58.50
2018-04-01T16:56:30.088Z,58.80
2018-04-01T16:58:58.080Z,59.50
2018-04-01T17:01:25.303Z,59.40
2018-04-01T17:03:53.505Z,60.40
2018-04-01T17:06:21.064Z,60.40
2018-04-01T17:08:48.374Z,61.40
2018-04-01T17:11:15.829Z,61.50
2018-04-01T17:13:43.177Z,60.80
2018-04-01T17:16:10.481Z,60.70
2018-04-01T17:18:37.735Z,62.30
2018-04-01T17:21:05.193Z,65.60
2018-04-01T17:23:32.966Z,69.30
2018-04-01T17:26:00.077Z,70.50
2018-04-01T17:28:28.384Z,71.80
2018-04-01T17:30:55.636Z,71.80
2018-04-01T17:33:23.024Z,73.30
2018-04-01T17:35:50.224Z,72.90
2018-04-01T17:38:17.400Z,73.50
2018-04-01T17:40:44.645Z,73.70
2018-04-01T17:43:11.859Z,75.60
2018-04-01T17:45:39.695Z,74.10
2018-04-01T17:48:06.966Z,74.10
2018-04-01T17:50:34.363Z,73.70
2018-04-01T17:53:01.621Z,74.30
2018-04-01T17:55:28.771Z,75.70
2018-04-01T17:57:56.024Z,74.70
2018-04-01T18:00:23.147Z,76.20
2018-04-01T18:02:50.987Z,74.90
2018-04-01T18:05:18.019Z,74.80
2018-04-01T18:07:45.124Z,73.70
2018-04-01T18:10:12.210Z,73.60
2018-04-01T18:12:39.242Z,74.60
2018-04-01T18:15:06.315Z,74.10
2018-04-01T18:17:33.310Z,74.60
2018-04-01T18:20:00.354Z,73.40
2018-04-01T18:22:27.353Z,72.60
2018-04-01T18:24:54.402Z,73.20
2018-04-01T18:27:21.438Z,72.80
2018-04-01T18:29:48.442Z,72.60
2018-04-01T18:32:16.230Z,72.70
2018-04-01T18:34:43.287Z,72.70
2018-04-01T18:37:10.366Z,73.90
2018-04-01T18:39:37.396Z,73.00
2018-04-01T18:42:04.560Z,74.00
2018-04-01T18:44:31.671Z,75.30
2018-04-01T18:46:58.667Z,76.20
2018-04-01T18:49:25.692Z,76.20
2018-04-01T18:51:52.703Z,75.30
2018-04-01T18:54:19.748Z,75.90
2018-04-01T18:56:46.772Z,75.30
2018-04-01T18:59:14.563Z,78.50
2018-04-01T19:01:41.641Z,78.50
2018-04-01T19:04:08.626Z,80.20
2018-04-01T19:06:36.400Z,81.60
2018-04-01T19:09:04.197Z,81.70
2018-04-01T19:11:31.268Z,82.50
2018-04-01T19:13:58.316Z,82.00
2018-04-01T19:16:25.825Z,81.70
2018-04-01T19:18:53.303Z,81.90
2018-04-01T19:21:20.812Z,81.10
2018-04-01T19:23:48.319Z,83.90
2018-04-01T19:26:15.846Z,80.20
2018-04-01T19:28:44.165Z,81.70
2018-04-01T19:31:11.623Z,81.60
2018-04-01T19:33:39.135Z,80.30
2018-04-01T19:36:07.614Z,79.90
2018-04-01T19:38:35.962Z,80.30
2018-04-01T19:41:03.547Z,80.20
2018-04-01T19:43:31.816Z,79.50
2018-04-01T19:45:59.353Z,79.50
2018-04-01T19:48:27.214Z,78.40
2018-04-01T19:50:54.916Z,79.30
2018-04-01T19:53:23.538Z,78.50
2018-04-01T19:55:51.290Z,78.50
2018-04-01T19:58:19.268Z,77.60
2018-04-01T20:00:46.764Z,77.50
2018-04-01T20:03:14.694Z,77.70
2018-04-01T20:05:42.716Z,78.20
2018-04-01T20:08:10.311Z,78.40
2018-04-01T20:10:37.924Z,79.80
2018-04-01T20:13:05.906Z,79.60
2018-04-01T20:15:33.525Z,79.90
2018-04-01T20:18:01.120Z,79.50
2018-04-01T20:20:28.850Z,79.70
2018-04-01T20:22:56.406Z,79.30
2018-04-01T20:25:24.182Z,79.30
2018-04-01T20:27:52.130Z,79.10
2018-04-01T20:30:20.099Z,78.80
2018-04-01T20:32:47.637Z,78.40
2018-04-01T20:35:15.403Z,77.60
2018-04-01T20:37:43.957Z,76.70
2018-04-01T20:40:11.594Z,76.60
2018-04-01T20:42:39.277Z,75.70
2018-04-01T20:45:06.994Z,75.40
2018-04-01T20:47:34.603Z,76.20
2018-04-01T20:50:02.225Z,76.80
2018-04-01T20:52:29.979Z,78.00
2018-04-01T20:54:57.566Z,76.50
2018-04-01T20:57:25.255Z,76.50
2018-04-01T20:59:54.089Z,76.20
2018-04-01T21:02:21.657Z,76.10
2018-04-01T21:04:49.310Z,75.90
2018-04-01T21:07:17.079Z,76.40
2018-04-01T21:09:44.797Z,74.70
2018-04-01T21:12:12.437Z,74.80
2018-04-01T21:14:40.233Z,73.90
2018-04-01T21:17:08.030Z,74.40
2018-04-01T21:19:35.924Z,73.90
2018-04-01T21:22:03.819Z,73.10
2018-04-01T21:24:31.419Z,74.00
2018-04-01T21:26:59.024Z,74.00
2018-04-01T21:29:27.407Z,72.80
2018-04-01T21:31:54.943Z,72.60
2018-04-01T21:34:22.449Z,72.80
2018-04-01T21:36:50.041Z,73.70
2018-04-01T21:39:17.596Z,73.80
2018-04-01T21:41:45.109Z,74.40
2018-04-01T21:44:12.678Z,74.30
2018-04-01T21:46:40.978Z,73.70
2018-04-01T21:49:09.330Z,74.40
2018-04-01T21:51:36.928Z,74.40
2018-04-01T21:54:04.709Z,73.90
2018-04-01T21:56:32.860Z,75.20
2018-04-01T21:59:00.356Z,73.90
2018-04-01T22:01:27.855Z,74.10
2018-04-01T22:03:56.203Z,73.00
2018-04-01T22:06:23.769Z,73.00
2018-04-01T22:08:51.411Z,73.50
2018-04-01T22:11:19.049Z,72.50
2018-04-01T22:13:46.591Z,71.90
2018-04-01T22:16:14.166Z,72.80
2018-04-01T22:18:41.765Z,71.70
2018-04-01T22:21:09.328Z,71.80
2018-04-01T22:23:37.021Z,70.50
2018-04-01T22:26:05.526Z,69.20
2018-04-01T22:28:33.192Z,69.20
2018-04-01T22:31:00.826Z,68.80
2018-04-01T22:33:29.218Z,68.00
2018-04-01T22:35:56.964Z,68.00
2018-04-01T22:38:25.238Z,68.60
2018-04-01T22:40:53.579Z,68.60
2018-04-01T22:43:21.141Z,68.50
2018-04-01T22:45:48.678Z,69.20
2018-04-01T22:48:16.198Z,69.40
2018-04-01T22:50:44.470Z,70.30
2018-04-01T22:53:12.741Z,70.50
2018-04-01T22:55:40.276Z,70.30
2018-04-01T22:58:07.808Z,70.00
2018-04-01T23:00:35.334Z,69.30
2018-04-01T23:03:03.602Z,69.20
2018-04-01T23:05:31.877Z,67.40
2018-04-01T23:08:00.228Z,67.30
2018-04-01T23:10:27.802Z,67.30
2018-04-01T23:12:55.289Z,67.30
2018-04-01T23:15:22.810Z,67.40
2018-04-01T23:17:50.319Z,67.90
2018-04-01T23:20:17.855Z,68.50
2018-04-01T23:22:46.210Z,67.90
2018-04-01T23:25:13.708Z,67.90
2018-04-01T23:27:41.358Z,68.00
2018-04-01T23:30:09.897Z,68.80
2018-04-01T23:32:37.727Z,68.70
2018-04-01T23:35:05.215Z,69.70
2018-04-01T23:37:33.130Z,70.00
2018-04-01T23:40:01.428Z,70.20
2018-04-01T23:42:29.476Z,70.20
2018-04-01T23:44:57.944Z,69.80
2018-04-01T23:47:26.225Z,70.20
2018-04-01T23:49:54.600Z,70.90
2018-04-01T23:52:22.910Z,69.10
2018-04-01T23:54:50.427Z,69.00
2018-04-01T23:57:17.999Z,69.60
2018-04-01T23:59:46.280Z,69.00
